createdAt,value
2017-12-23T00:00:36.742Z,36.00
2017-12-23T00:03:04.351Z,35.93
2017-12-23T00:05:31.871Z,35.90
2017-12-23T00:07:59.359Z,35.99
2017-12-23T00:10:26.922Z,36.01
2017-12-23T00:12:54.437Z,36.01
2017-12-23T00:15:21.995Z,36.06
2017-12-23T00:17:49.528Z,35.99
2017-12-23T00:20:17.147Z,35.85
2017-12-23T00:22:44.647Z,35.83
2017-12-23T00:25:12.216Z,35.79
2017-12-23T00:27:39.802Z,35.63
2017-12-23T00:30:07.360Z,35.70
2017-12-23T00:32:34.912Z,35.74
2017-12-23T00:35:02.480Z,35.77
2017-12-23T00:37:29.950Z,35.77
2017-12-23T00:39:57.498Z,35.78
2017-12-23T00:42:25.014Z,35.68
2017-12-23T00:44:52.571Z,35.60
2017-12-23T00:47:20.059Z,35.57
2017-12-23T00:49:47.553Z,35.55
2017-12-23T00:52:15.039Z,35.50
2017-12-23T00:54:42.565Z,35.62
2017-12-23T00:57:10.055Z,35.65
2017-12-23T00:59:37.607Z,35.64
2017-12-23T01:02:05.122Z,35.68
2017-12-23T01:04:32.680Z,35.55
2017-12-23T01:07:00.169Z,35.52
2017-12-23T01:09:27.760Z,35.46
2017-12-23T01:11:55.315Z,35.46
2017-12-23T01:14:22.878Z,35.36
2017-12-23T01:16:50.394Z,35.43
2017-12-23T01:19:17.943Z,35.40
2017-12-23T01:21:45.433Z,35.44
2017-12-23T01:24:13.006Z,35.45
2017-12-23T01:26:40.528Z,35.46
2017-12-23T01:29:08.067Z,35.33
2017-12-23T01:31:35.657Z,35.29
2017-12-23T01:34:03.141Z,35.23
2017-12-23T01:36:30.696Z,35.20
2017-12-23T01:38:58.214Z,35.13
2017-12-23T01:41:25.767Z,35.19
2017-12-23T01:43:53.315Z,35.26
2017-12-23T01:46:20.829Z,35.27
2017-12-23T01:48:48.310Z,35.32
2017-12-23T01:51:15.793Z,35.24
2017-12-23T01:53:43.350Z,35.08
2017-12-23T01:56:10.905Z,35.06
2017-12-23T01:58:38.391Z,35.00
2017-12-23T02:01:05.901Z,34.91
2017-12-23T02:03:33.466Z,34.99
2017-12-23T02:06:01.050Z,35.00
2017-12-23T02:08:28.573Z,35.06
2017-12-23T02:10:56.059Z,35.02
2017-12-23T02:13:23.616Z,35.01
2017-12-23T02:15:51.129Z,34.87
2017-12-23T02:18:18.677Z,34.74
2017-12-23T02:20:46.225Z,34.73
2017-12-23T02:23:13.742Z,34.67
2017-12-23T02:25:41.290Z,34.59
2017-12-23T02:28:08.839Z,34.70
2017-12-23T02:30:36.420Z,34.75
2017-12-23T02:33:03.901Z,34.81
2017-12-23T02:35:31.382Z,34.82
2017-12-23T02:37:58.911Z,34.83
2017-12-23T02:40:26.404Z,34.74
2017-12-23T02:42:53.952Z,34.57
2017-12-23T02:45:21.474Z,34.53
2017-12-23T02:47:48.954Z,34.50
2017-12-23T02:50:16.435Z,34.44
2017-12-23T02:52:43.952Z,34.54
2017-12-23T02:55:11.442Z,34.65
2017-12-23T02:57:38.996Z,34.66
2017-12-23T03:00:06.578Z,34.68
2017-12-23T03:02:34.127Z,34.67
2017-12-23T03:05:01.614Z,34.63
2017-12-23T03:07:29.138Z,34.53
2017-12-23T03:09:56.626Z,34.39
2017-12-23T03:12:24.223Z,34.34
2017-12-23T03:14:51.807Z,34.29
2017-12-23T03:17:19.282Z,34.26
2017-12-23T03:19:46.773Z,34.35
2017-12-23T03:22:14.285Z,34.38
2017-12-23T03:24:41.835Z,34.32
2017-12-23T03:27:09.333Z,34.35
2017-12-23T03:29:36.912Z,34.31
2017-12-23T03:32:04.391Z,34.19
2017-12-23T03:34:31.944Z,34.20
2017-12-23T03:36:59.527Z,34.18
2017-12-23T03:39:27.012Z,34.20
2017-12-23T03:41:54.551Z,34.21
2017-12-23T03:44:22.135Z,34.27
2017-12-23T03:46:49.613Z,34.29
2017-12-23T03:49:17.098Z,34.29
2017-12-23T03:51:44.630Z,34.29
2017-12-23T03:54:12.195Z,34.27
2017-12-23T03:56:39.740Z,34.13
2017-12-23T03:59:07.326Z,34.10
2017-12-23T04:01:34.876Z,34.05
2017-12-23T04:04:02.351Z,34.01
2017-12-23T04:06:29.932Z,34.10
2017-12-23T04:08:57.411Z,34.10
2017-12-23T04:11:24.964Z,34.13
2017-12-23T04:13:52.658Z,34.19
2017-12-23T04:16:20.212Z,34.18
2017-12-23T04:18:47.755Z,34.14
2017-12-23T04:21:15.270Z,34.10
2017-12-23T04:23:42.745Z,34.02
2017-12-23T04:26:10.300Z,34.00
2017-12-23T04:28:37.805Z,34.07
2017-12-23T04:31:05.278Z,34.10
2017-12-23T04:33:32.827Z,34.15
2017-12-23T04:36:00.405Z,34.22
2017-12-23T04:38:27.946Z,34.25
2017-12-23T04:40:55.426Z,34.24
2017-12-23T04:43:22.936Z,34.12
2017-12-23T04:45:50.479Z,34.08
2017-12-23T04:48:18.028Z,34.08
2017-12-23T04:50:45.599Z,34.00
2017-12-23T04:53:13.143Z,34.10
2017-12-23T04:55:40.691Z,34.13
2017-12-23T04:58:08.211Z,34.17
2017-12-23T05:00:35.761Z,34.18
2017-12-23T05:03:03.243Z,34.22
2017-12-23T05:05:30.824Z,34.20
2017-12-23T05:07:58.380Z,34.17
2017-12-23T05:10:25.920Z,34.09
2017-12-23T05:12:53.589Z,34.03
2017-12-23T05:15:21.069Z,34.02
2017-12-23T05:17:48.617Z,34.04
2017-12-23T05:20:16.200Z,34.90
2017-12-23T05:22:43.748Z,34.30
2017-12-23T05:25:11.235Z,34.21
2017-12-23T05:27:38.747Z,34.19
2017-12-23T05:30:06.233Z,34.32
2017-12-23T05:32:33.800Z,34.43
2017-12-23T05:35:01.314Z,34.68
2017-12-23T05:37:28.864Z,34.71
2017-12-23T05:39:56.360Z,35.10
2017-12-23T05:42:23.874Z,35.29
2017-12-23T05:44:51.420Z,35.27
2017-12-23T05:47:18.988Z,35.32
2017-12-23T05:49:46.545Z,35.34
2017-12-23T05:52:14.029Z,35.63
2017-12-23T05:54:41.547Z,35.86
2017-12-23T05:57:09.026Z,36.00
2017-12-23T05:59:36.587Z,35.98
2017-12-23T06:02:04.184Z,36.03
2017-12-23T06:04:32.822Z,36.04
2017-12-23T06:07:00.308Z,36.20
2017-12-23T06:09:27.814Z,36.27
2017-12-23T06:11:55.297Z,36.36
2017-12-23T06:14:22.781Z,36.46
2017-12-23T06:16:50.294Z,36.67
2017-12-23T06:19:17.950Z,37.00
2017-12-23T06:21:45.508Z,37.40
2017-12-23T06:24:13.097Z,37.28
2017-12-23T06:26:40.597Z,37.37
2017-12-23T06:29:08.163Z,37.72
2017-12-23T06:31:35.686Z,38.21
2017-12-23T06:34:03.179Z,38.48
2017-12-23T06:36:30.731Z,38.95
2017-12-23T06:38:58.262Z,39.85
2017-12-23T06:41:25.750Z,40.01
2017-12-23T06:43:53.242Z,40.32
2017-12-23T06:46:20.761Z,40.95
2017-12-23T06:48:48.312Z,40.96
2017-12-23T06:51:15.803Z,40.65
2017-12-23T06:53:43.314Z,40.15
2017-12-23T06:56:10.908Z,40.60
2017-12-23T06:58:38.374Z,41.24
2017-12-23T07:01:05.952Z,41.34
2017-12-23T07:03:33.504Z,41.43
2017-12-23T07:06:01.050Z,41.48
2017-12-23T07:08:28.570Z,41.55
2017-12-23T07:10:56.115Z,41.31
2017-12-23T07:13:23.848Z,41.22
2017-12-23T07:15:51.365Z,41.13
2017-12-23T07:18:18.858Z,41.34
2017-12-23T07:20:46.416Z,41.35
2017-12-23T07:23:13.946Z,41.49
2017-12-23T07:25:41.434Z,41.42
2017-12-23T07:28:08.938Z,41.41
2017-12-23T07:30:36.466Z,41.27
2017-12-23T07:33:03.941Z,41.47
2017-12-23T07:35:31.426Z,41.32
2017-12-23T07:37:58.932Z,41.04
2017-12-23T07:40:26.510Z,40.82
2017-12-23T07:42:53.990Z,40.63
2017-12-23T07:45:21.631Z,40.32
2017-12-23T07:47:49.121Z,40.40
2017-12-23T07:50:16.667Z,40.59
2017-12-23T07:52:44.185Z,40.83
2017-12-23T07:55:11.697Z,40.91
2017-12-23T07:57:39.287Z,40.81
2017-12-23T08:00:06.835Z,40.73
2017-12-23T08:02:34.388Z,40.72
2017-12-23T08:05:01.896Z,41.02
2017-12-23T08:07:29.491Z,41.69
2017-12-23T08:09:57.034Z,41.96
2017-12-23T08:12:24.600Z,42.54
2017-12-23T08:14:52.132Z,43.03
2017-12-23T08:17:19.687Z,43.45
2017-12-23T08:19:47.169Z,43.70
2017-12-23T08:22:14.697Z,43.71
2017-12-23T08:24:42.210Z,43.66
2017-12-23T08:27:09.713Z,43.26
2017-12-23T08:29:37.299Z,43.64
2017-12-23T08:32:04.856Z,43.86
2017-12-23T08:34:32.417Z,43.54
2017-12-23T08:36:59.963Z,43.85
2017-12-23T08:39:27.445Z,43.99
2017-12-23T08:41:54.922Z,43.88
2017-12-23T08:44:22.442Z,43.84
2017-12-23T08:46:49.942Z,43.92
2017-12-23T08:49:17.480Z,44.11
2017-12-23T08:51:44.998Z,43.53
2017-12-23T08:54:12.547Z,42.37
2017-12-23T08:56:40.034Z,41.96
2017-12-23T08:59:07.570Z,41.28
2017-12-23T09:01:35.214Z,40.90
2017-12-23T09:04:02.718Z,40.98
2017-12-23T09:06:30.318Z,40.79
2017-12-23T09:08:57.871Z,40.67
2017-12-23T09:11:25.352Z,40.31
2017-12-23T09:13:53.024Z,40.47
2017-12-23T09:16:20.588Z,39.75
2017-12-23T09:18:48.150Z,39.58
2017-12-23T09:21:15.694Z,39.49
2017-12-23T09:23:43.180Z,39.48
2017-12-23T09:26:10.731Z,39.37
2017-12-23T09:28:38.278Z,39.37
2017-12-23T09:31:05.898Z,39.29
2017-12-23T09:33:33.393Z,39.14
2017-12-23T09:36:00.980Z,39.46
2017-12-23T09:38:28.535Z,39.75
2017-12-23T09:40:56.075Z,39.24
2017-12-23T09:43:23.683Z,38.86
2017-12-23T09:45:51.173Z,38.76
2017-12-23T09:48:18.740Z,38.63
2017-12-23T09:50:46.329Z,38.46
2017-12-23T09:53:13.818Z,38.36
2017-12-23T09:55:41.297Z,38.29
2017-12-23T09:58:08.816Z,38.29
2017-12-23T10:00:36.368Z,38.04
2017-12-23T10:03:03.931Z,38.22
2017-12-23T10:05:31.535Z,38.09
2017-12-23T10:07:59.096Z,37.90
2017-12-23T10:10:26.603Z,37.41
2017-12-23T10:12:54.117Z,37.47
2017-12-23T10:15:21.601Z,37.56
2017-12-23T10:17:49.168Z,37.66
2017-12-23T10:20:16.814Z,37.67
2017-12-23T10:22:44.294Z,37.73
2017-12-23T10:25:11.774Z,37.45
2017-12-23T10:27:39.315Z,36.95
2017-12-23T10:30:06.884Z,36.92
2017-12-23T10:32:34.403Z,37.36
2017-12-23T10:35:01.986Z,37.43
2017-12-23T10:37:29.474Z,36.93
2017-12-23T10:39:56.954Z,37.88
2017-12-23T10:42:24.562Z,37.85
2017-12-23T10:44:52.137Z,37.78
2017-12-23T10:47:19.710Z,38.16
2017-12-23T10:49:47.222Z,38.31
2017-12-23T10:52:14.762Z,40.04
2017-12-23T10:54:42.355Z,40.60
2017-12-23T10:57:09.907Z,40.17
2017-12-23T10:59:37.431Z,39.64
2017-12-23T11:02:04.958Z,40.50
2017-12-23T11:04:32.521Z,39.98
2017-12-23T11:07:00.078Z,40.37
2017-12-23T11:09:27.590Z,40.28
2017-12-23T11:11:55.081Z,41.18
2017-12-23T11:14:22.609Z,41.24
2017-12-23T11:16:50.217Z,41.35
2017-12-23T11:19:17.783Z,41.42
2017-12-23T11:21:45.367Z,44.15
2017-12-23T11:24:12.882Z,42.17
2017-12-23T11:26:40.368Z,41.10
2017-12-23T11:29:07.928Z,40.57
2017-12-23T11:31:35.445Z,40.62
2017-12-23T11:34:02.926Z,40.44
2017-12-23T11:36:30.492Z,40.83
2017-12-23T11:38:58.112Z,40.66
2017-12-23T11:41:25.601Z,40.96
2017-12-23T11:43:53.150Z,41.80
2017-12-23T11:46:20.756Z,42.64
2017-12-23T11:48:48.249Z,43.28
2017-12-23T11:51:15.795Z,44.35
2017-12-23T11:53:43.318Z,43.25
2017-12-23T11:56:10.890Z,44.72
2017-12-23T11:58:38.390Z,44.25
2017-12-23T12:01:05.915Z,44.08
2017-12-23T12:03:33.476Z,44.43
2017-12-23T12:06:01.037Z,45.48
2017-12-23T12:08:28.619Z,44.59
2017-12-23T12:10:56.110Z,43.35
2017-12-23T12:13:23.599Z,43.07
2017-12-23T12:15:51.210Z,42.70
2017-12-23T12:18:18.706Z,42.77
2017-12-23T12:20:46.271Z,42.16
2017-12-23T12:23:13.944Z,42.46
2017-12-23T12:25:41.504Z,42.67
2017-12-23T12:28:09.059Z,42.90
2017-12-23T12:30:36.640Z,43.42
2017-12-23T12:33:04.197Z,43.37
2017-12-23T12:35:31.693Z,43.17
2017-12-23T12:37:59.214Z,43.04
2017-12-23T12:40:26.764Z,43.15
2017-12-23T12:42:54.245Z,43.30
2017-12-23T12:45:21.827Z,43.24
2017-12-23T12:47:49.315Z,43.74
2017-12-23T12:50:16.798Z,43.70
2017-12-23T12:52:44.383Z,43.54
2017-12-23T12:55:11.931Z,43.70
2017-12-23T12:57:39.418Z,43.82
2017-12-23T13:00:06.943Z,43.98
2017-12-23T13:02:34.455Z,44.11
2017-12-23T13:05:01.947Z,43.90
2017-12-23T13:07:29.527Z,44.10
2017-12-23T13:09:57.092Z,44.29
2017-12-23T13:12:24.657Z,44.29
2017-12-23T13:14:52.231Z,44.41
2017-12-23T13:17:19.789Z,44.53
2017-12-23T13:19:47.274Z,44.81
2017-12-23T13:22:14.848Z,44.95
2017-12-23T13:24:42.338Z,45.26
2017-12-23T13:27:09.888Z,45.75
2017-12-23T13:29:37.410Z,45.81
2017-12-23T13:32:05.062Z,45.87
2017-12-23T13:34:32.612Z,45.79
2017-12-23T13:37:00.187Z,45.88
2017-12-23T13:39:27.682Z,46.12
2017-12-23T13:41:55.231Z,46.16
2017-12-23T13:44:22.829Z,46.14
2017-12-23T13:46:50.323Z,46.13
2017-12-23T13:49:17.810Z,45.99
2017-12-23T13:51:45.317Z,45.85
2017-12-23T13:54:12.797Z,46.08
2017-12-23T13:56:40.282Z,46.10
2017-12-23T13:59:07.797Z,46.08
2017-12-23T14:01:35.375Z,45.91
2017-12-23T14:04:02.932Z,46.04
2017-12-23T14:06:30.518Z,46.11
2017-12-23T14:08:58.073Z,46.19
2017-12-23T14:11:25.554Z,45.85
2017-12-23T14:13:53.153Z,45.74
2017-12-23T14:16:20.704Z,45.92
2017-12-23T14:18:48.257Z,45.84
2017-12-23T14:21:15.775Z,45.52
2017-12-23T14:23:43.260Z,45.62
2017-12-23T14:26:10.803Z,45.80
2017-12-23T14:28:38.404Z,45.70
2017-12-23T14:31:05.952Z,45.29
2017-12-23T14:33:33.442Z,44.99
2017-12-23T14:36:01.028Z,45.04
2017-12-23T14:38:28.510Z,45.27
2017-12-23T14:40:55.991Z,45.11
2017-12-23T14:43:23.502Z,44.81
2017-12-23T14:45:50.984Z,44.65
2017-12-23T14:48:18.478Z,45.03
2017-12-23T14:50:45.998Z,45.08
2017-12-23T14:53:13.577Z,44.98
2017-12-23T14:55:41.068Z,44.79
2017-12-23T14:58:08.660Z,44.56
2017-12-23T15:00:36.149Z,44.57
2017-12-23T15:03:03.633Z,44.52
2017-12-23T15:05:36.987Z,44.47
2017-12-23T15:08:04.541Z,44.51
2017-12-23T15:10:32.091Z,44.46
2017-12-23T15:12:59.783Z,44.30
2017-12-23T15:15:27.335Z,44.17
2017-12-23T15:17:54.889Z,44.19
2017-12-23T15:20:22.471Z,44.08
2017-12-23T15:22:50.056Z,43.89
2017-12-23T15:25:17.599Z,43.76
2017-12-23T15:27:45.118Z,43.75
2017-12-23T15:30:12.619Z,43.82
2017-12-23T15:32:40.172Z,43.76
2017-12-23T15:35:07.694Z,43.73
2017-12-23T15:37:35.274Z,43.82
2017-12-23T15:40:02.777Z,43.82
2017-12-23T15:42:30.364Z,43.79
2017-12-23T15:44:57.860Z,43.74
2017-12-23T15:47:25.425Z,43.63
2017-12-23T15:49:52.976Z,43.65
2017-12-23T15:52:20.532Z,43.71
2017-12-23T15:54:48.128Z,43.69
2017-12-23T15:57:15.683Z,43.64
2017-12-23T15:59:43.239Z,43.52
2017-12-23T16:02:10.771Z,34.72
2017-12-23T16:04:38.266Z,33.36
2017-12-23T16:07:05.746Z,38.10
2017-12-23T16:09:33.371Z,39.86
2017-12-23T16:12:00.853Z,40.67
2017-12-23T16:14:28.329Z,40.85
2017-12-23T16:16:55.915Z,41.01
2017-12-23T16:19:23.394Z,41.15
2017-12-23T16:21:50.949Z,41.07
2017-12-23T16:24:18.543Z,41.24
2017-12-23T16:26:46.034Z,41.10
2017-12-23T16:29:13.538Z,41.14
2017-12-23T16:31:41.124Z,41.18
2017-12-23T16:34:08.669Z,41.06
2017-12-23T16:36:36.231Z,41.01
2017-12-23T16:39:03.790Z,40.88
2017-12-23T16:41:31.348Z,41.00
2017-12-23T16:43:58.844Z,40.97
2017-12-23T16:46:26.429Z,40.95
2017-12-23T16:48:53.918Z,41.12
2017-12-23T16:51:21.405Z,41.36
2017-12-23T16:53:48.914Z,40.98
2017-12-23T16:56:16.491Z,40.34
2017-12-23T16:58:44.045Z,40.06
2017-12-23T17:01:11.661Z,40.06
2017-12-23T17:03:39.219Z,40.07
2017-12-23T17:06:06.745Z,39.92
2017-12-23T17:08:34.259Z,39.89
2017-12-23T17:11:01.818Z,39.83
2017-12-23T17:13:29.298Z,39.84
2017-12-23T17:15:56.882Z,40.19
2017-12-23T17:18:24.442Z,40.63
2017-12-23T17:20:51.931Z,41.81
2017-12-23T17:23:19.536Z,41.40
2017-12-23T17:25:47.042Z,40.75
2017-12-23T17:28:17.281Z,41.12
2017-12-23T17:30:44.798Z,40.95
2017-12-23T17:33:12.294Z,41.04
2017-12-23T17:35:39.852Z,41.65
2017-12-23T17:38:07.452Z,42.23
2017-12-23T17:40:35.008Z,42.82
2017-12-23T17:43:02.498Z,42.03
2017-12-23T17:45:30.088Z,41.58
2017-12-23T17:47:57.577Z,41.35
2017-12-23T17:50:25.070Z,41.18
2017-12-23T17:52:52.598Z,41.21
2017-12-23T17:55:20.156Z,42.01
2017-12-23T17:57:47.643Z,41.80
2017-12-23T18:00:15.230Z,41.70
2017-12-23T18:02:42.723Z,41.62
2017-12-23T18:05:10.209Z,42.46
2017-12-23T18:07:37.738Z,43.01
2017-12-23T18:10:05.235Z,44.46
2017-12-23T18:12:32.839Z,44.62
2017-12-23T18:15:00.633Z,44.69
2017-12-23T18:17:28.290Z,43.77
2017-12-23T18:19:55.860Z,43.41
2017-12-23T18:22:23.480Z,43.70
2017-12-23T18:24:51.059Z,43.34
2017-12-23T18:27:18.562Z,42.71
2017-12-23T18:29:46.285Z,41.91
2017-12-23T18:32:13.791Z,41.37
2017-12-23T18:37:15.456Z,40.32
2017-12-23T18:39:42.942Z,40.29
2017-12-23T18:42:10.500Z,40.86
2017-12-23T18:44:38.031Z,41.15
2017-12-23T18:47:05.606Z,41.39
2017-12-23T18:49:33.167Z,41.34
2017-12-23T18:52:00.686Z,41.08
2017-12-23T18:54:28.183Z,40.58
2017-12-23T18:56:55.675Z,40.12
2017-12-23T18:59:23.273Z,39.98
2017-12-23T19:01:50.764Z,40.24
2017-12-23T19:04:18.367Z,40.25
2017-12-23T19:06:45.969Z,42.69
2017-12-23T19:09:13.543Z,42.37
2017-12-23T19:11:41.059Z,42.39
2017-12-23T19:14:08.653Z,42.59
2017-12-23T19:16:48.052Z,42.64
2017-12-23T19:19:15.573Z,42.88
2017-12-23T19:21:44.028Z,43.11
2017-12-23T19:24:11.592Z,43.02
2017-12-23T19:26:39.184Z,43.41
2017-12-23T19:29:06.686Z,43.85
2017-12-23T19:31:34.185Z,43.40
2017-12-23T19:34:01.670Z,43.45
2017-12-23T19:36:29.239Z,43.72
2017-12-23T19:38:56.756Z,44.61
2017-12-23T19:41:24.315Z,44.83
2017-12-23T19:43:51.814Z,45.76
2017-12-23T19:46:19.399Z,46.27
2017-12-23T19:48:46.898Z,47.02
2017-12-23T19:51:14.431Z,47.28
2017-12-23T19:53:41.949Z,47.40
2017-12-23T19:56:09.434Z,47.44
2017-12-23T19:58:36.995Z,47.78
2017-12-23T20:01:04.576Z,48.41
2017-12-23T20:03:32.123Z,48.85
2017-12-23T20:05:59.624Z,49.23
2017-12-23T20:08:27.142Z,48.65
2017-12-23T20:10:54.709Z,48.11
2017-12-23T20:13:22.428Z,48.69
2017-12-23T20:15:50.035Z,48.85
2017-12-23T20:18:17.676Z,48.38
2017-12-23T20:20:45.190Z,48.65
2017-12-23T20:23:12.723Z,49.15
2017-12-23T20:25:40.223Z,49.17
2017-12-23T20:28:07.737Z,48.50
2017-12-23T20:30:35.368Z,47.93
2017-12-23T20:33:02.969Z,47.81
2017-12-23T20:35:30.565Z,47.33
2017-12-23T20:37:58.123Z,47.04
2017-12-23T20:40:25.712Z,46.68
2017-12-23T20:42:53.294Z,46.20
2017-12-23T20:45:20.912Z,45.90
2017-12-23T20:47:48.509Z,45.55
2017-12-23T20:50:16.015Z,45.23
2017-12-23T20:52:43.619Z,45.20
2017-12-23T20:55:11.226Z,45.07
2017-12-23T20:57:38.753Z,45.17
2017-12-23T21:00:06.455Z,45.38
2017-12-23T21:02:34.423Z,45.43
2017-12-23T21:05:01.948Z,45.33
2017-12-23T21:07:29.503Z,45.25
2017-12-23T21:09:57.085Z,45.26
2017-12-23T21:12:24.657Z,45.18
2017-12-23T21:14:52.262Z,45.13
2017-12-23T21:17:19.754Z,45.01
2017-12-23T21:19:47.242Z,44.71
2017-12-23T21:22:14.839Z,44.84
2017-12-23T21:24:42.401Z,44.79
2017-12-23T21:27:09.883Z,44.58
2017-12-23T21:29:37.409Z,44.44
2017-12-23T21:32:04.976Z,44.30
2017-12-23T21:34:32.466Z,44.18
2017-12-23T21:37:00.006Z,44.08
2017-12-23T21:39:27.565Z,43.95
2017-12-23T21:41:55.051Z,43.87
2017-12-23T21:44:22.646Z,43.86
2017-12-23T21:46:50.200Z,43.67
2017-12-23T21:49:17.756Z,43.56
2017-12-23T21:51:45.345Z,43.56
2017-12-23T21:54:12.904Z,43.42
2017-12-23T21:56:40.385Z,43.26
2017-12-23T21:59:07.924Z,43.11
2017-12-23T22:01:35.410Z,43.06
2017-12-23T22:04:02.974Z,43.03
2017-12-23T22:06:30.574Z,42.86
2017-12-23T22:08:58.054Z,42.75
2017-12-23T22:11:25.608Z,42.69
2017-12-23T22:13:53.195Z,42.58
2017-12-23T22:16:20.714Z,42.56
2017-12-23T22:18:48.270Z,42.48
2017-12-23T22:21:15.797Z,42.44
2017-12-23T22:23:43.286Z,42.47
2017-12-23T22:26:10.841Z,42.33
2017-12-23T22:28:38.432Z,42.34
2017-12-23T22:31:05.980Z,42.32
2017-12-23T22:33:33.470Z,42.21
2017-12-23T22:36:00.978Z,42.17
2017-12-23T22:38:28.520Z,42.06
2017-12-23T22:40:56.084Z,42.02
2017-12-23T22:43:23.603Z,41.97
2017-12-23T22:45:51.151Z,41.85
2017-12-23T22:48:18.651Z,41.86
2017-12-23T22:50:46.166Z,41.80
2017-12-23T22:53:13.650Z,41.77
2017-12-23T22:55:41.203Z,41.69
2017-12-23T22:58:08.709Z,41.60
2017-12-23T23:00:36.263Z,41.53
2017-12-23T23:03:03.816Z,41.54
2017-12-23T23:05:31.330Z,41.44
2017-12-23T23:07:58.817Z,41.42
2017-12-23T23:10:26.301Z,41.39
2017-12-23T23:12:53.823Z,41.32
2017-12-23T23:15:21.368Z,41.25
2017-12-23T23:17:48.849Z,41.15
2017-12-23T23:20:16.439Z,41.05
2017-12-23T23:22:43.987Z,41.10
2017-12-23T23:25:11.470Z,41.02
2017-12-23T23:27:38.986Z,40.92
2017-12-23T23:30:06.558Z,40.90
2017-12-23T23:32:34.046Z,40.89
2017-12-23T23:35:01.628Z,40.86
2017-12-23T23:37:29.184Z,40.76
2017-12-23T23:39:56.666Z,40.72
2017-12-23T23:42:24.179Z,40.72
2017-12-23T23:44:51.722Z,40.73
2017-12-23T23:47:19.263Z,40.60
2017-12-23T23:49:46.746Z,40.60
2017-12-23T23:52:14.291Z,40.64
2017-12-23T23:54:41.868Z,40.59
2017-12-23T23:57:09.351Z,40.55
2017-12-23T23:59:36.838Z,40.54
